sensor_id;sensor_type;location;lat;lon;timestamp;P1;durP1;ratioP1;P2;durP2;ratioP2
60308;SDS011;50313;52.894;6.492;2024-01-30T00:01:58;16.35;;;6.40;;
60308;SDS011;50313;52.894;6.492;2024-01-30T00:04:23;10.45;;;6.18;;
60308;SDS011;50313;52.894;6.492;2024-01-30T00:06:50;10.85;;;6.22;;
60308;SDS011;50313;52.894;6.492;2024-01-30T00:09:18;12.07;;;6.78;;
60308;SDS011;50313;52.894;6.492;2024-01-30T00:11:44;12.52;;;6.60;;
60308;SDS011;50313;52.894;6.492;2024-01-30T00:14:10;13.98;;;7.82;;
60308;SDS011;50313;52.894;6.492;2024-01-30T00:16:36;11.02;;;6.50;;
60308;SDS011;50313;52.894;6.492;2024-01-30T00:19:02;12.57;;;6.88;;
60308;SDS011;50313;52.894;6.492;2024-01-30T00:21:28;14.82;;;7.32;;
60308;SDS011;50313;52.894;6.492;2024-01-30T00:23:54;6.57;;;4.85;;
60308;SDS011;50313;52.894;6.492;2024-01-30T00:26:20;8.15;;;5.35;;
60308;SDS011;50313;52.894;6.492;2024-01-30T00:28:45;9.15;;;5.63;;
60308;SDS011;50313;52.894;6.492;2024-01-30T00:31:11;14.38;;;6.47;;
60308;SDS011;50313;52.894;6.492;2024-01-30T00:33:40;9.30;;;6.28;;
60308;SDS011;50313;52.894;6.492;2024-01-30T00:36:08;13.25;;;6.20;;
60308;SDS011;50313;52.894;6.492;2024-01-30T00:38:35;11.52;;;7.60;;
60308;SDS011;50313;52.894;6.492;2024-01-30T00:41:01;10.32;;;5.78;;
60308;SDS011;50313;52.894;6.492;2024-01-30T00:43:27;14.05;;;6.28;;
60308;SDS011;50313;52.894;6.492;2024-01-30T00:45:53;12.80;;;6.72;;
60308;SDS011;50313;52.894;6.492;2024-01-30T00:48:19;14.85;;;6.13;;
60308;SDS011;50313;52.894;6.492;2024-01-30T00:50:45;17.35;;;6.30;;
60308;SDS011;50313;52.894;6.492;2024-01-30T00:53:11;13.10;;;5.05;;
60308;SDS011;50313;52.894;6.492;2024-01-30T00:55:37;8.23;;;5.85;;
60308;SDS011;50313;52.894;6.492;2024-01-30T00:58:03;12.57;;;6.63;;
60308;SDS011;50313;52.894;6.492;2024-01-30T01:00:47;11.10;;;5.45;;
60308;SDS011;50313;52.894;6.492;2024-01-30T01:03:13;9.38;;;5.00;;
60308;SDS011;50313;52.894;6.492;2024-01-30T01:05:39;13.32;;;5.10;;
60308;SDS011;50313;52.894;6.492;2024-01-30T01:08:05;9.25;;;6.20;;
60308;SDS011;50313;52.894;6.492;2024-01-30T01:10:30;17.75;;;6.57;;
60308;SDS011;50313;52.894;6.492;2024-01-30T01:12:56;8.93;;;5.25;;
60308;SDS011;50313;52.894;6.492;2024-01-30T01:15:22;10.63;;;6.40;;
60308;SDS011;50313;52.894;6.492;2024-01-30T01:17:48;8.20;;;5.95;;
60308;SDS011;50313;52.894;6.492;2024-01-30T01:20:13;9.88;;;6.70;;
60308;SDS011;50313;52.894;6.492;2024-01-30T01:22:39;11.02;;;6.03;;
60308;SDS011;50313;52.894;6.492;2024-01-30T01:25:06;13.07;;;7.05;;
60308;SDS011;50313;52.894;6.492;2024-01-30T01:27:33;11.40;;;5.47;;
60308;SDS011;50313;52.894;6.492;2024-01-30T01:29:59;7.40;;;5.05;;
60308;SDS011;50313;52.894;6.492;2024-01-30T01:32:26;8.55;;;5.50;;
60308;SDS011;50313;52.894;6.492;2024-01-30T01:34:51;10.55;;;6.75;;
60308;SDS011;50313;52.894;6.492;2024-01-30T01:37:17;7.55;;;4.50;;
60308;SDS011;50313;52.894;6.492;2024-01-30T01:39:43;11.55;;;7.80;;
60308;SDS011;50313;52.894;6.492;2024-01-30T01:42:09;11.10;;;7.22;;
60308;SDS011;50313;52.894;6.492;2024-01-30T01:44:34;6.85;;;4.78;;
60308;SDS011;50313;52.894;6.492;2024-01-30T01:47:00;9.35;;;6.60;;
60308;SDS011;50313;52.894;6.492;2024-01-30T01:49:27;7.28;;;5.57;;
60308;SDS011;50313;52.894;6.492;2024-01-30T01:51:54;17.83;;;5.85;;
60308;SDS011;50313;52.894;6.492;2024-01-30T01:54:24;12.05;;;5.07;;
60308;SDS011;50313;52.894;6.492;2024-01-30T01:56:52;13.93;;;5.93;;
60308;SDS011;50313;52.894;6.492;2024-01-30T01:59:18;11.27;;;7.20;;
60308;SDS011;50313;52.894;6.492;2024-01-30T02:01:45;9.57;;;4.97;;
60308;SDS011;50313;52.894;6.492;2024-01-30T02:04:14;13.05;;;6.10;;
60308;SDS011;50313;52.894;6.492;2024-01-30T02:06:40;10.95;;;4.82;;
60308;SDS011;50313;52.894;6.492;2024-01-30T02:09:07;8.75;;;5.35;;
60308;SDS011;50313;52.894;6.492;2024-01-30T02:11:34;6.65;;;4.40;;
60308;SDS011;50313;52.894;6.492;2024-01-30T02:14:03;11.45;;;5.88;;
60308;SDS011;50313;52.894;6.492;2024-01-30T02:16:29;10.02;;;6.60;;
60308;SDS011;50313;52.894;6.492;2024-01-30T02:18:55;11.23;;;6.82;;
60308;SDS011;50313;52.894;6.492;2024-01-30T02:21:21;12.65;;;4.65;;
60308;SDS011;50313;52.894;6.492;2024-01-30T02:23:47;8.60;;;5.57;;
60308;SDS011;50313;52.894;6.492;2024-01-30T02:26:14;7.45;;;5.28;;
60308;SDS011;50313;52.894;6.492;2024-01-30T02:28:40;9.38;;;5.47;;
60308;SDS011;50313;52.894;6.492;2024-01-30T02:31:06;11.57;;;5.65;;
60308;SDS011;50313;52.894;6.492;2024-01-30T02:33:32;13.82;;;5.10;;
60308;SDS011;50313;52.894;6.492;2024-01-30T02:35:57;11.80;;;5.53;;
60308;SDS011;50313;52.894;6.492;2024-01-30T02:38:23;9.70;;;5.53;;
60308;SDS011;50313;52.894;6.492;2024-01-30T02:40:49;8.52;;;4.43;;
60308;SDS011;50313;52.894;6.492;2024-01-30T02:43:15;7.95;;;4.43;;
60308;SDS011;50313;52.894;6.492;2024-01-30T02:45:41;11.75;;;5.90;;
60308;SDS011;50313;52.894;6.492;2024-01-30T02:48:07;9.73;;;5.90;;
60308;SDS011;50313;52.894;6.492;2024-01-30T02:50:33;11.38;;;5.72;;
60308;SDS011;50313;52.894;6.492;2024-01-30T02:52:59;12.05;;;5.65;;
60308;SDS011;50313;52.894;6.492;2024-01-30T02:55:25;9.80;;;6.30;;
60308;SDS011;50313;52.894;6.492;2024-01-30T02:57:50;15.50;;;6.55;;
60308;SDS011;50313;52.894;6.492;2024-01-30T03:00:16;14.48;;;6.07;;
60308;SDS011;50313;52.894;6.492;2024-01-30T03:02:44;9.73;;;5.63;;
60308;SDS011;50313;52.894;6.492;2024-01-30T03:05:10;9.38;;;3.92;;
60308;SDS011;50313;52.894;6.492;2024-01-30T03:07:36;9.18;;;4.68;;
60308;SDS011;50313;52.894;6.492;2024-01-30T03:10:02;7.32;;;4.95;;
60308;SDS011;50313;52.894;6.492;2024-01-30T03:12:29;8.30;;;5.13;;
60308;SDS011;50313;52.894;6.492;2024-01-30T03:14:55;10.52;;;5.38;;
60308;SDS011;50313;52.894;6.492;2024-01-30T03:17:21;5.97;;;3.78;;
60308;SDS011;50313;52.894;6.492;2024-01-30T03:19:46;7.75;;;4.13;;
60308;SDS011;50313;52.894;6.492;2024-01-30T03:22:12;7.78;;;5.65;;
60308;SDS011;50313;52.894;6.492;2024-01-30T03:24:38;7.32;;;4.32;;
60308;SDS011;50313;52.894;6.492;2024-01-30T03:27:04;9.27;;;4.72;;
60308;SDS011;50313;52.894;6.492;2024-01-30T03:29:29;5.15;;;4.03;;
60308;SDS011;50313;52.894;6.492;2024-01-30T03:31:55;9.77;;;4.57;;
60308;SDS011;50313;52.894;6.492;2024-01-30T03:34:21;6.60;;;4.95;;
60308;SDS011;50313;52.894;6.492;2024-01-30T03:36:47;8.75;;;5.90;;
60308;SDS011;50313;52.894;6.492;2024-01-30T03:39:12;5.47;;;4.68;;
60308;SDS011;50313;52.894;6.492;2024-01-30T03:41:38;10.18;;;5.95;;
60308;SDS011;50313;52.894;6.492;2024-01-30T03:44:08;4.85;;;4.10;;
60308;SDS011;50313;52.894;6.492;2024-01-30T03:46:34;6.00;;;4.40;;
60308;SDS011;50313;52.894;6.492;2024-01-30T03:48:59;12.43;;;5.57;;
60308;SDS011;50313;52.894;6.492;2024-01-30T03:51:25;7.65;;;4.80;;
60308;SDS011;50313;52.894;6.492;2024-01-30T03:53:51;12.63;;;6.50;;
60308;SDS011;50313;52.894;6.492;2024-01-30T03:56:18;6.93;;;4.20;;
60308;SDS011;50313;52.894;6.492;2024-01-30T03:58:44;7.05;;;4.55;;
60308;SDS011;50313;52.894;6.492;2024-01-30T04:01:13;6.95;;;4.93;;
60308;SDS011;50313;52.894;6.492;2024-01-30T04:03:40;5.68;;;4.80;;
60308;SDS011;50313;52.894;6.492;2024-01-30T04:06:06;8.70;;;5.47;;
60308;SDS011;50313;52.894;6.492;2024-01-30T04:08:32;8.13;;;4.15;;
60308;SDS011;50313;52.894;6.492;2024-01-30T04:10:57;12.50;;;5.97;;
60308;SDS011;50313;52.894;6.492;2024-01-30T04:13:23;7.78;;;5.35;;
60308;SDS011;50313;52.894;6.492;2024-01-30T04:15:49;4.68;;;3.55;;
60308;SDS011;50313;52.894;6.492;2024-01-30T04:18:14;8.40;;;4.55;;
60308;SDS011;50313;52.894;6.492;2024-01-30T04:20:40;6.22;;;4.85;;
60308;SDS011;50313;52.894;6.492;2024-01-30T04:23:06;23.05;;;5.72;;
60308;SDS011;50313;52.894;6.492;2024-01-30T04:25:32;7.65;;;4.65;;
60308;SDS011;50313;52.894;6.492;2024-01-30T04:27:57;8.40;;;4.65;;
60308;SDS011;50313;52.894;6.492;2024-01-30T04:30:23;8.30;;;4.53;;
60308;SDS011;50313;52.894;6.492;2024-01-30T04:32:49;10.23;;;3.45;;
60308;SDS011;50313;52.894;6.492;2024-01-30T04:35:15;5.32;;;3.50;;
60308;SDS011;50313;52.894;6.492;2024-01-30T04:37:40;13.43;;;5.55;;
60308;SDS011;50313;52.894;6.492;2024-01-30T04:40:06;10.18;;;5.45;;
60308;SDS011;50313;52.894;6.492;2024-01-30T04:42:33;9.02;;;4.85;;
60308;SDS011;50313;52.894;6.492;2024-01-30T04:44:59;9.60;;;6.28;;
60308;SDS011;50313;52.894;6.492;2024-01-30T04:47:24;7.47;;;4.22;;
60308;SDS011;50313;52.894;6.492;2024-01-30T04:49:51;6.15;;;4.18;;
60308;SDS011;50313;52.894;6.492;2024-01-30T04:52:17;8.23;;;5.68;;
60308;SDS011;50313;52.894;6.492;2024-01-30T04:54:42;5.13;;;3.92;;
60308;SDS011;50313;52.894;6.492;2024-01-30T04:57:08;10.50;;;5.18;;
60308;SDS011;50313;52.894;6.492;2024-01-30T04:59:37;9.45;;;5.45;;
60308;SDS011;50313;52.894;6.492;2024-01-30T05:02:03;5.95;;;4.38;;
60308;SDS011;50313;52.894;6.492;2024-01-30T05:04:28;11.00;;;5.07;;
60308;SDS011;50313;52.894;6.492;2024-01-30T05:06:54;5.78;;;4.45;;
60308;SDS011;50313;52.894;6.492;2024-01-30T05:09:20;9.95;;;5.13;;
60308;SDS011;50313;52.894;6.492;2024-01-30T05:11:46;8.75;;;5.00;;
60308;SDS011;50313;52.894;6.492;2024-01-30T05:14:12;10.40;;;5.13;;
60308;SDS011;50313;52.894;6.492;2024-01-30T05:16:40;12.15;;;5.82;;
60308;SDS011;50313;52.894;6.492;2024-01-30T05:19:06;7.63;;;4.30;;
60308;SDS011;50313;52.894;6.492;2024-01-30T05:21:32;10.77;;;5.07;;
60308;SDS011;50313;52.894;6.492;2024-01-30T05:23:58;7.13;;;3.88;;
60308;SDS011;50313;52.894;6.492;2024-01-30T05:26:23;13.15;;;5.55;;
60308;SDS011;50313;52.894;6.492;2024-01-30T05:28:49;8.00;;;5.30;;
60308;SDS011;50313;52.894;6.492;2024-01-30T05:31:15;12.77;;;5.38;;
60308;SDS011;50313;52.894;6.492;2024-01-30T05:33:41;4.45;;;3.53;;
60308;SDS011;50313;52.894;6.492;2024-01-30T05:36:06;8.77;;;5.75;;
60308;SDS011;50313;52.894;6.492;2024-01-30T05:38:32;9.80;;;5.50;;
60308;SDS011;50313;52.894;6.492;2024-01-30T05:40:58;6.10;;;3.83;;
60308;SDS011;50313;52.894;6.492;2024-01-30T05:43:24;15.05;;;5.20;;
60308;SDS011;50313;52.894;6.492;2024-01-30T05:45:50;10.05;;;5.45;;
60308;SDS011;50313;52.894;6.492;2024-01-30T05:48:17;9.73;;;4.78;;
60308;SDS011;50313;52.894;6.492;2024-01-30T05:50:43;10.23;;;5.82;;
60308;SDS011;50313;52.894;6.492;2024-01-30T05:53:10;8.63;;;5.18;;
60308;SDS011;50313;52.894;6.492;2024-01-30T05:55:36;7.13;;;4.25;;
60308;SDS011;50313;52.894;6.492;2024-01-30T05:58:01;8.80;;;5.05;;
60308;SDS011;50313;52.894;6.492;2024-01-30T06:00:27;5.63;;;3.78;;
60308;SDS011;50313;52.894;6.492;2024-01-30T06:02:53;5.82;;;4.30;;
60308;SDS011;50313;52.894;6.492;2024-01-30T06:05:18;7.88;;;4.93;;
60308;SDS011;50313;52.894;6.492;2024-01-30T06:07:44;8.77;;;5.47;;
60308;SDS011;50313;52.894;6.492;2024-01-30T06:10:10;8.75;;;5.72;;
60308;SDS011;50313;52.894;6.492;2024-01-30T06:12:36;14.30;;;6.13;;
60308;SDS011;50313;52.894;6.492;2024-01-30T06:15:03;10.95;;;4.30;;
60308;SDS011;50313;52.894;6.492;2024-01-30T06:17:29;7.25;;;4.70;;
60308;SDS011;50313;52.894;6.492;2024-01-30T06:19:54;8.60;;;5.32;;
60308;SDS011;50313;52.894;6.492;2024-01-30T06:22:20;11.88;;;5.00;;
60308;SDS011;50313;52.894;6.492;2024-01-30T06:24:46;6.38;;;3.58;;
60308;SDS011;50313;52.894;6.492;2024-01-30T06:27:14;11.05;;;5.13;;
60308;SDS011;50313;52.894;6.492;2024-01-30T06:29:40;12.48;;;4.72;;
60308;SDS011;50313;52.894;6.492;2024-01-30T06:32:08;8.07;;;4.75;;
60308;SDS011;50313;52.894;6.492;2024-01-30T06:34:34;8.20;;;3.47;;
60308;SDS011;50313;52.894;6.492;2024-01-30T06:36:59;7.47;;;4.60;;
60308;SDS011;50313;52.894;6.492;2024-01-30T06:39:26;8.55;;;5.60;;
60308;SDS011;50313;52.894;6.492;2024-01-30T06:41:52;7.70;;;5.20;;
60308;SDS011;50313;52.894;6.492;2024-01-30T06:44:17;5.50;;;3.78;;
60308;SDS011;50313;52.894;6.492;2024-01-30T06:46:43;14.43;;;5.45;;
60308;SDS011;50313;52.894;6.492;2024-01-30T06:49:09;7.88;;;4.50;;
60308;SDS011;50313;52.894;6.492;2024-01-30T06:51:35;6.60;;;4.30;;
60308;SDS011;50313;52.894;6.492;2024-01-30T06:54:00;9.15;;;5.18;;
60308;SDS011;50313;52.894;6.492;2024-01-30T06:56:27;8.65;;;4.63;;
60308;SDS011;50313;52.894;6.492;2024-01-30T06:58:53;6.10;;;4.10;;
60308;SDS011;50313;52.894;6.492;2024-01-30T07:01:19;6.43;;;3.95;;
60308;SDS011;50313;52.894;6.492;2024-01-30T07:03:46;6.70;;;4.55;;
60308;SDS011;50313;52.894;6.492;2024-01-30T07:06:11;7.78;;;4.43;;
60308;SDS011;50313;52.894;6.492;2024-01-30T07:08:37;6.65;;;4.00;;
60308;SDS011;50313;52.894;6.492;2024-01-30T07:11:05;7.68;;;4.57;;
60308;SDS011;50313;52.894;6.492;2024-01-30T07:13:31;7.78;;;4.13;;
60308;SDS011;50313;52.894;6.492;2024-01-30T07:15:57;7.15;;;4.25;;
60308;SDS011;50313;52.894;6.492;2024-01-30T07:18:23;8.07;;;4.80;;
60308;SDS011;50313;52.894;6.492;2024-01-30T07:20:49;12.00;;;5.60;;
60308;SDS011;50313;52.894;6.492;2024-01-30T07:23:15;10.73;;;5.68;;
60308;SDS011;50313;52.894;6.492;2024-01-30T07:25:46;6.45;;;4.78;;
60308;SDS011;50313;52.894;6.492;2024-01-30T07:28:14;10.65;;;5.53;;
60308;SDS011;50313;52.894;6.492;2024-01-30T07:30:43;10.02;;;4.75;;
60308;SDS011;50313;52.894;6.492;2024-01-30T07:33:09;7.85;;;5.18;;
60308;SDS011;50313;52.894;6.492;2024-01-30T07:35:36;10.93;;;5.93;;
60308;SDS011;50313;52.894;6.492;2024-01-30T07:38:02;7.57;;;4.85;;
60308;SDS011;50313;52.894;6.492;2024-01-30T07:40:27;8.07;;;4.68;;
60308;SDS011;50313;52.894;6.492;2024-01-30T07:42:53;5.32;;;4.05;;
60308;SDS011;50313;52.894;6.492;2024-01-30T07:45:19;10.73;;;5.90;;
60308;SDS011;50313;52.894;6.492;2024-01-30T07:47:50;13.52;;;5.05;;
60308;SDS011;50313;52.894;6.492;2024-01-30T07:50:16;8.00;;;4.60;;
60308;SDS011;50313;52.894;6.492;2024-01-30T07:52:42;10.73;;;4.90;;
60308;SDS011;50313;52.894;6.492;2024-01-30T07:55:09;8.68;;;4.18;;
60308;SDS011;50313;52.894;6.492;2024-01-30T07:57:34;9.30;;;4.75;;
60308;SDS011;50313;52.894;6.492;2024-01-30T08:00:15;10.25;;;4.45;;
60308;SDS011;50313;52.894;6.492;2024-01-30T08:02:41;10.23;;;3.83;;
60308;SDS011;50313;52.894;6.492;2024-01-30T08:05:07;13.90;;;5.43;;
60308;SDS011;50313;52.894;6.492;2024-01-30T08:07:35;6.07;;;4.00;;
60308;SDS011;50313;52.894;6.492;2024-01-30T08:10:01;9.13;;;4.00;;
60308;SDS011;50313;52.894;6.492;2024-01-30T08:12:27;7.70;;;4.60;;
60308;SDS011;50313;52.894;6.492;2024-01-30T08:14:53;8.93;;;3.90;;
60308;SDS011;50313;52.894;6.492;2024-01-30T08:17:19;7.65;;;4.78;;
60308;SDS011;50313;52.894;6.492;2024-01-30T08:19:44;17.90;;;5.10;;
60308;SDS011;50313;52.894;6.492;2024-01-30T08:22:11;15.27;;;5.45;;
60308;SDS011;50313;52.894;6.492;2024-01-30T08:24:37;11.50;;;5.50;;
60308;SDS011;50313;52.894;6.492;2024-01-30T08:27:05;7.50;;;4.10;;
60308;SDS011;50313;52.894;6.492;2024-01-30T08:29:31;8.63;;;4.38;;
60308;SDS011;50313;52.894;6.492;2024-01-30T08:31:57;8.43;;;4.97;;
60308;SDS011;50313;52.894;6.492;2024-01-30T08:34:24;8.68;;;4.95;;
60308;SDS011;50313;52.894;6.492;2024-01-30T08:36:50;5.65;;;4.30;;
60308;SDS011;50313;52.894;6.492;2024-01-30T08:39:15;6.72;;;4.45;;
60308;SDS011;50313;52.894;6.492;2024-01-30T08:41:41;7.13;;;4.47;;
60308;SDS011;50313;52.894;6.492;2024-01-30T08:44:07;14.20;;;4.88;;
60308;SDS011;50313;52.894;6.492;2024-01-30T08:46:33;11.32;;;6.28;;
60308;SDS011;50313;52.894;6.492;2024-01-30T08:48:59;14.57;;;4.68;;
60308;SDS011;50313;52.894;6.492;2024-01-30T08:51:24;12.65;;;5.10;;
60308;SDS011;50313;52.894;6.492;2024-01-30T08:53:50;7.38;;;3.95;;
60308;SDS011;50313;52.894;6.492;2024-01-30T08:56:17;10.63;;;5.72;;
60308;SDS011;50313;52.894;6.492;2024-01-30T08:58:43;10.77;;;4.95;;
60308;SDS011;50313;52.894;6.492;2024-01-30T09:01:09;7.78;;;4.28;;
60308;SDS011;50313;52.894;6.492;2024-01-30T09:03:35;8.88;;;4.32;;
60308;SDS011;50313;52.894;6.492;2024-01-30T09:06:07;9.80;;;4.85;;
60308;SDS011;50313;52.894;6.492;2024-01-30T09:08:33;8.10;;;4.72;;
60308;SDS011;50313;52.894;6.492;2024-01-30T09:10:59;7.07;;;5.03;;
60308;SDS011;50313;52.894;6.492;2024-01-30T09:13:25;10.95;;;4.50;;
60308;SDS011;50313;52.894;6.492;2024-01-30T09:15:51;5.95;;;4.07;;
60308;SDS011;50313;52.894;6.492;2024-01-30T09:18:18;12.93;;;6.00;;
60308;SDS011;50313;52.894;6.492;2024-01-30T09:20:43;18.35;;;6.10;;
60308;SDS011;50313;52.894;6.492;2024-01-30T09:23:12;11.02;;;4.95;;
60308;SDS011;50313;52.894;6.492;2024-01-30T09:25:38;11.10;;;5.38;;
60308;SDS011;50313;52.894;6.492;2024-01-30T09:28:04;12.98;;;5.43;;
60308;SDS011;50313;52.894;6.492;2024-01-30T09:30:30;16.02;;;4.80;;
60308;SDS011;50313;52.894;6.492;2024-01-30T09:32:56;10.45;;;5.82;;
60308;SDS011;50313;52.894;6.492;2024-01-30T09:35:22;8.20;;;4.65;;
60308;SDS011;50313;52.894;6.492;2024-01-30T09:37:47;12.88;;;5.15;;
60308;SDS011;50313;52.894;6.492;2024-01-30T09:40:13;8.98;;;4.45;;
60308;SDS011;50313;52.894;6.492;2024-01-30T09:42:43;7.13;;;4.57;;
60308;SDS011;50313;52.894;6.492;2024-01-30T09:45:13;8.48;;;5.32;;
60308;SDS011;50313;52.894;6.492;2024-01-30T09:47:40;10.73;;;5.60;;
60308;SDS011;50313;52.894;6.492;2024-01-30T09:50:13;11.48;;;4.75;;
60308;SDS011;50313;52.894;6.492;2024-01-30T09:52:40;8.05;;;4.15;;
60308;SDS011;50313;52.894;6.492;2024-01-30T09:55:08;10.10;;;5.43;;
60308;SDS011;50313;52.894;6.492;2024-01-30T09:57:34;15.00;;;5.50;;
60308;SDS011;50313;52.894;6.492;2024-01-30T10:00:01;7.55;;;4.40;;
60308;SDS011;50313;52.894;6.492;2024-01-30T10:02:29;9.98;;;5.20;;
60308;SDS011;50313;52.894;6.492;2024-01-30T10:04:58;9.40;;;5.05;;
60308;SDS011;50313;52.894;6.492;2024-01-30T10:07:25;8.63;;;4.60;;
60308;SDS011;50313;52.894;6.492;2024-01-30T10:09:51;12.88;;;5.88;;
60308;SDS011;50313;52.894;6.492;2024-01-30T10:12:18;9.15;;;5.10;;
60308;SDS011;50313;52.894;6.492;2024-01-30T10:14:44;10.32;;;4.40;;
60308;SDS011;50313;52.894;6.492;2024-01-30T10:17:10;13.07;;;5.05;;
60308;SDS011;50313;52.894;6.492;2024-01-30T10:19:37;9.27;;;5.40;;
60308;SDS011;50313;52.894;6.492;2024-01-30T10:22:06;8.45;;;4.55;;
60308;SDS011;50313;52.894;6.492;2024-01-30T10:24:33;11.50;;;5.05;;
60308;SDS011;50313;52.894;6.492;2024-01-30T10:26:59;10.98;;;5.68;;
60308;SDS011;50313;52.894;6.492;2024-01-30T10:29:26;7.40;;;4.72;;
60308;SDS011;50313;52.894;6.492;2024-01-30T10:34:28;8.30;;;4.40;;
60308;SDS011;50313;52.894;6.492;2024-01-30T10:37:07;9.98;;;4.68;;
60308;SDS011;50313;52.894;6.492;2024-01-30T10:39:43;11.00;;;4.75;;
60308;SDS011;50313;52.894;6.492;2024-01-30T10:42:11;9.07;;;5.13;;
60308;SDS011;50313;52.894;6.492;2024-01-30T10:44:48;11.70;;;5.30;;
60308;SDS011;50313;52.894;6.492;2024-01-30T10:47:37;6.82;;;4.30;;
60308;SDS011;50313;52.894;6.492;2024-01-30T10:50:05;9.63;;;4.75;;
60308;SDS011;50313;52.894;6.492;2024-01-30T10:52:34;23.85;;;5.68;;
60308;SDS011;50313;52.894;6.492;2024-01-30T10:55:00;7.28;;;4.50;;
60308;SDS011;50313;52.894;6.492;2024-01-30T10:57:26;14.80;;;5.05;;
60308;SDS011;50313;52.894;6.492;2024-01-30T10:59:56;11.10;;;4.95;;
60308;SDS011;50313;52.894;6.492;2024-01-30T11:02:24;11.65;;;4.38;;
60308;SDS011;50313;52.894;6.492;2024-01-30T11:04:54;12.52;;;5.57;;
60308;SDS011;50313;52.894;6.492;2024-01-30T11:07:26;9.75;;;4.57;;
60308;SDS011;50313;52.894;6.492;2024-01-30T11:09:53;20.98;;;5.47;;
60308;SDS011;50313;52.894;6.492;2024-01-30T11:12:29;11.57;;;5.47;;
60308;SDS011;50313;52.894;6.492;2024-01-30T11:15:01;11.35;;;4.80;;
60308;SDS011;50313;52.894;6.492;2024-01-30T11:17:43;11.35;;;4.75;;
60308;SDS011;50313;52.894;6.492;2024-01-30T11:20:09;11.05;;;4.72;;
60308;SDS011;50313;52.894;6.492;2024-01-30T11:22:45;10.82;;;5.50;;
60308;SDS011;50313;52.894;6.492;2024-01-30T11:25:16;10.95;;;5.07;;
60308;SDS011;50313;52.894;6.492;2024-01-30T11:27:44;12.23;;;6.07;;
60308;SDS011;50313;52.894;6.492;2024-01-30T11:30:22;8.93;;;4.88;;
60308;SDS011;50313;52.894;6.492;2024-01-30T11:33:12;12.70;;;5.40;;
60308;SDS011;50313;52.894;6.492;2024-01-30T11:35:38;11.73;;;5.20;;
60308;SDS011;50313;52.894;6.492;2024-01-30T11:38:05;13.98;;;6.47;;
60308;SDS011;50313;52.894;6.492;2024-01-30T11:40:32;13.25;;;4.80;;
60308;SDS011;50313;52.894;6.492;2024-01-30T11:42:59;13.63;;;6.38;;
60308;SDS011;50313;52.894;6.492;2024-01-30T11:45:30;14.38;;;6.32;;
60308;SDS011;50313;52.894;6.492;2024-01-30T11:47:56;13.77;;;7.07;;
60308;SDS011;50313;52.894;6.492;2024-01-30T11:50:22;8.88;;;5.10;;
60308;SDS011;50313;52.894;6.492;2024-01-30T11:52:50;13.80;;;5.30;;
60308;SDS011;50313;52.894;6.492;2024-01-30T11:55:15;11.88;;;6.93;;
60308;SDS011;50313;52.894;6.492;2024-01-30T11:57:42;13.93;;;6.60;;
60308;SDS011;50313;52.894;6.492;2024-01-30T12:00:15;9.77;;;5.68;;
60308;SDS011;50313;52.894;6.492;2024-01-30T12:02:49;16.45;;;6.07;;
60308;SDS011;50313;52.894;6.492;2024-01-30T12:05:18;13.50;;;6.32;;
60308;SDS011;50313;52.894;6.492;2024-01-30T12:07:45;16.55;;;6.30;;
60308;SDS011;50313;52.894;6.492;2024-01-30T12:10:12;10.65;;;4.65;;
60308;SDS011;50313;52.894;6.492;2024-01-30T12:12:46;13.18;;;4.57;;
60308;SDS011;50313;52.894;6.492;2024-01-30T12:15:13;15.45;;;3.95;;
60308;SDS011;50313;52.894;6.492;2024-01-30T12:17:39;4.65;;;2.95;;
60308;SDS011;50313;52.894;6.492;2024-01-30T12:20:06;7.63;;;2.72;;
60308;SDS011;50313;52.894;6.492;2024-01-30T12:22:41;16.23;;;3.90;;
60308;SDS011;50313;52.894;6.492;2024-01-30T12:25:08;8.23;;;2.28;;
60308;SDS011;50313;52.894;6.492;2024-01-30T12:27:35;7.90;;;2.63;;
60308;SDS011;50313;52.894;6.492;2024-01-30T12:30:04;6.75;;;2.75;;
60308;SDS011;50313;52.894;6.492;2024-01-30T12:32:34;2.42;;;2.00;;
60308;SDS011;50313;52.894;6.492;2024-01-30T12:35:01;4.63;;;2.28;;
60308;SDS011;50313;52.894;6.492;2024-01-30T12:37:27;1.35;;;1.10;;
60308;SDS011;50313;52.894;6.492;2024-01-30T12:39:54;4.85;;;1.10;;
60308;SDS011;50313;52.894;6.492;2024-01-30T12:42:20;2.92;;;1.23;;
60308;SDS011;50313;52.894;6.492;2024-01-30T12:44:49;1.50;;;1.15;;
60308;SDS011;50313;52.894;6.492;2024-01-30T12:47:15;7.00;;;2.05;;
60308;SDS011;50313;52.894;6.492;2024-01-30T12:49:44;0.80;;;0.77;;
60308;SDS011;50313;52.894;6.492;2024-01-30T12:52:10;2.67;;;1.17;;
60308;SDS011;50313;52.894;6.492;2024-01-30T12:54:37;0.80;;;0.80;;
60308;SDS011;50313;52.894;6.492;2024-01-30T12:57:03;1.08;;;0.65;;
60308;SDS011;50313;52.894;6.492;2024-01-30T12:59:30;1.75;;;0.98;;
60308;SDS011;50313;52.894;6.492;2024-01-30T13:01:55;2.08;;;1.38;;
60308;SDS011;50313;52.894;6.492;2024-01-30T13:04:22;1.95;;;0.75;;
60308;SDS011;50313;52.894;6.492;2024-01-30T13:06:48;2.28;;;0.95;;
60308;SDS011;50313;52.894;6.492;2024-01-30T13:09:14;0.60;;;0.60;;
60308;SDS011;50313;52.894;6.492;2024-01-30T13:11:41;0.73;;;0.73;;
60308;SDS011;50313;52.894;6.492;2024-01-30T13:14:06;1.40;;;0.93;;
60308;SDS011;50313;52.894;6.492;2024-01-30T13:16:32;1.88;;;0.93;;
60308;SDS011;50313;52.894;6.492;2024-01-30T13:18:58;3.17;;;1.45;;
60308;SDS011;50313;52.894;6.492;2024-01-30T13:21:23;2.10;;;0.90;;
60308;SDS011;50313;52.894;6.492;2024-01-30T13:23:49;0.65;;;0.60;;
60308;SDS011;50313;52.894;6.492;2024-01-30T13:26:18;0.82;;;0.70;;
60308;SDS011;50313;52.894;6.492;2024-01-30T13:28:44;2.08;;;0.90;;
60308;SDS011;50313;52.894;6.492;2024-01-30T13:31:10;0.93;;;0.75;;
60308;SDS011;50313;52.894;6.492;2024-01-30T13:33:36;1.55;;;1.02;;
60308;SDS011;50313;52.894;6.492;2024-01-30T13:36:01;1.25;;;1.00;;
60308;SDS011;50313;52.894;6.492;2024-01-30T13:38:27;0.88;;;0.85;;
60308;SDS011;50313;52.894;6.492;2024-01-30T13:40:53;1.50;;;0.82;;
60308;SDS011;50313;52.894;6.492;2024-01-30T13:43:19;0.70;;;0.68;;
60308;SDS011;50313;52.894;6.492;2024-01-30T13:45:45;2.53;;;1.08;;
60308;SDS011;50313;52.894;6.492;2024-01-30T13:48:11;0.70;;;0.65;;
60308;SDS011;50313;52.894;6.492;2024-01-30T13:50:37;2.65;;;0.82;;
60308;SDS011;50313;52.894;6.492;2024-01-30T13:53:02;7.82;;;1.40;;
60308;SDS011;50313;52.894;6.492;2024-01-30T13:55:31;2.60;;;1.42;;
60308;SDS011;50313;52.894;6.492;2024-01-30T13:57:57;6.40;;;2.00;;
60308;SDS011;50313;52.894;6.492;2024-01-30T14:00:23;5.47;;;1.85;;
60308;SDS011;50313;52.894;6.492;2024-01-30T14:02:50;5.60;;;2.58;;
60308;SDS011;50313;52.894;6.492;2024-01-30T14:05:16;9.38;;;1.85;;
60308;SDS011;50313;52.894;6.492;2024-01-30T14:07:43;2.08;;;1.40;;
60308;SDS011;50313;52.894;6.492;2024-01-30T14:10:09;1.23;;;1.13;;
60308;SDS011;50313;52.894;6.492;2024-01-30T14:12:38;1.40;;;1.00;;
60308;SDS011;50313;52.894;6.492;2024-01-30T14:15:04;3.33;;;1.20;;
60308;SDS011;50313;52.894;6.492;2024-01-30T14:17:32;4.25;;;1.85;;
60308;SDS011;50313;52.894;6.492;2024-01-30T14:19:58;4.25;;;1.45;;
60308;SDS011;50313;52.894;6.492;2024-01-30T14:22:23;2.50;;;1.05;;
60308;SDS011;50313;52.894;6.492;2024-01-30T14:24:49;0.88;;;0.77;;
60308;SDS011;50313;52.894;6.492;2024-01-30T14:27:15;0.77;;;0.75;;
60308;SDS011;50313;52.894;6.492;2024-01-30T14:29:40;2.78;;;1.15;;
60308;SDS011;50313;52.894;6.492;2024-01-30T14:32:08;3.42;;;1.98;;
60308;SDS011;50313;52.894;6.492;2024-01-30T14:34:33;7.88;;;3.08;;
60308;SDS011;50313;52.894;6.492;2024-01-30T14:37:00;5.03;;;1.50;;
60308;SDS011;50313;52.894;6.492;2024-01-30T14:39:26;4.75;;;1.00;;
60308;SDS011;50313;52.894;6.492;2024-01-30T14:41:52;7.32;;;1.45;;
60308;SDS011;50313;52.894;6.492;2024-01-30T14:44:17;1.10;;;1.00;;